createdAt,value
2018-04-02T00:00:48.814Z,1005
2018-04-02T00:01:49.593Z,1006
2018-04-02T00:02:50.371Z,1006
2018-04-02T00:03:51.150Z,1006
2018-04-02T00:04:51.902Z,1005
2018-04-02T00:05:52.676Z,1005
2018-04-02T00:06:53.432Z,1005
2018-04-02T00:07:54.209Z,1005
2018-04-02T00:08:55.007Z,1005
2018-04-02T00:09:55.746Z,1005
2018-04-02T00:10:56.495Z,1005
2018-04-02T00:11:57.249Z,1006
2018-04-02T00:12:58.001Z,1006
2018-04-02T00:13:58.773Z,1006
2018-04-02T00:14:59.525Z,1005
2018-04-02T00:16:00.280Z,1005
2018-04-02T00:17:01.031Z,1006
2018-04-02T00:18:01.790Z,1006
2018-04-02T00:19:02.537Z,1006
2018-04-02T00:20:03.311Z,1006
2018-04-02T00:21:04.074Z,1006
2018-04-02T00:22:04.848Z,1005
2018-04-02T00:23:05.623Z,1005
2018-04-02T00:24:06.381Z,1005
2018-04-02T00:25:07.153Z,1005
2018-04-02T00:26:07.923Z,1005
2018-04-02T00:27:08.673Z,1005
2018-04-02T00:28:09.681Z,1005
2018-04-02T00:29:10.437Z,1005
2018-04-02T00:30:11.188Z,1005
2018-04-02T00:31:11.953Z,1005
2018-04-02T00:32:12.744Z,1005
2018-04-02T00:33:13.499Z,1005
2018-04-02T00:34:14.255Z,1005
2018-04-02T00:35:15.025Z,1005
2018-04-02T00:36:15.803Z,1005
2018-04-02T00:37:16.559Z,1005
2018-04-02T00:38:17.335Z,1005
2018-04-02T00:39:18.098Z,1005
2018-04-02T00:40:18.853Z,1005
2018-04-02T00:41:19.617Z,1005
2018-04-02T00:42:20.372Z,1005
2018-04-02T00:43:21.125Z,1005
2018-04-02T00:44:21.882Z,1005
2018-04-02T00:45:22.655Z,1005
2018-04-02T00:46:23.410Z,1005
2018-04-02T00:47:24.186Z,1005
2018-04-02T00:48:24.965Z,1005
2018-04-02T00:49:25.721Z,1005
2018-04-02T00:50:26.476Z,1005
2018-04-02T00:51:27.251Z,1005
2018-04-02T00:52:28.010Z,1005
2018-04-02T00:53:28.779Z,1005
2018-04-02T00:54:29.544Z,1005
2018-04-02T00:55:30.299Z,1005
2018-04-02T00:56:31.053Z,1005
2018-04-02T00:57:31.805Z,1005
2018-04-02T00:58:32.563Z,1005
2018-04-02T00:59:33.318Z,1005
2018-04-02T01:00:34.073Z,1005
2018-04-02T01:01:34.850Z,1005
2018-04-02T01:02:35.628Z,1005
2018-04-02T01:03:36.387Z,1005
2018-04-02T01:04:37.140Z,1005
2018-04-02T01:05:37.891Z,1005
2018-04-02T01:06:38.664Z,1005
2018-04-02T01:07:39.421Z,1005
2018-04-02T01:08:40.176Z,1005
2018-04-02T01:09:40.929Z,1005
2018-04-02T01:10:41.684Z,1005
2018-04-02T01:11:42.460Z,1005
2018-04-02T01:12:43.237Z,1005
2018-04-02T01:13:44.015Z,1005
2018-04-02T01:14:44.773Z,1005
2018-04-02T01:15:45.542Z,1005
2018-04-02T01:16:46.328Z,1005
2018-04-02T01:17:47.081Z,1005
2018-04-02T01:18:47.834Z,1005
2018-04-02T01:19:48.588Z,1005
2018-04-02T01:20:49.344Z,1005
2018-04-02T01:21:50.101Z,1005
2018-04-02T01:22:50.849Z,1005
2018-04-02T01:23:51.603Z,1005
2018-04-02T01:24:52.353Z,1005
2018-04-02T01:25:53.106Z,1005
2018-04-02T01:26:53.856Z,1005
2018-04-02T01:27:54.608Z,1005
2018-04-02T01:28:55.361Z,1005
2018-04-02T01:29:56.115Z,1005
2018-04-02T01:30:56.896Z,1005
2018-04-02T01:31:57.652Z,1005
2018-04-02T01:32:58.425Z,1005
2018-04-02T01:33:59.207Z,1005
2018-04-02T01:34:59.967Z,1005
2018-04-02T01:36:00.736Z,1005
2018-04-02T01:37:01.488Z,1005
2018-04-02T01:38:02.267Z,1005
2018-04-02T01:39:03.020Z,1005
2018-04-02T01:40:03.798Z,1005
2018-04-02T01:41:04.547Z,1005
2018-04-02T01:42:05.329Z,1005
2018-04-02T01:43:06.079Z,1005
2018-04-02T01:44:06.852Z,1005
2018-04-02T01:45:07.606Z,1005
2018-04-02T01:46:08.355Z,1005
2018-04-02T01:47:09.108Z,1005
2018-04-02T01:48:09.862Z,1005
2018-04-02T01:49:10.620Z,1005
2018-04-02T01:50:11.376Z,1005
2018-04-02T01:51:12.130Z,1005
2018-04-02T01:52:12.887Z,1005
2018-04-02T01:53:13.639Z,1005
2018-04-02T01:54:14.415Z,1005
2018-04-02T01:55:15.174Z,1005
2018-04-02T01:56:15.928Z,1005
2018-04-02T01:57:16.679Z,1005
2018-04-02T01:58:17.438Z,1005
2018-04-02T01:59:18.213Z,1005
2018-04-02T02:00:18.972Z,1005
2018-04-02T02:01:19.748Z,1005
2018-04-02T02:02:20.524Z,1005
2018-04-02T02:03:21.278Z,1005
2018-04-02T02:04:22.036Z,1005
2018-04-02T02:05:22.787Z,1005
2018-04-02T02:06:23.546Z,1005
2018-04-02T02:07:24.321Z,1005
2018-04-02T02:08:25.098Z,1005
2018-04-02T02:09:25.850Z,1005
2018-04-02T02:10:26.600Z,1005
2018-04-02T02:11:27.353Z,1005
2018-04-02T02:12:28.129Z,1005
2018-04-02T02:13:28.895Z,1005
2018-04-02T02:14:29.642Z,1005
2018-04-02T02:15:30.392Z,1005
2018-04-02T02:16:31.147Z,1005
2018-04-02T02:17:31.906Z,1005
2018-04-02T02:18:32.680Z,1005
2018-04-02T02:19:33.465Z,1005
2018-04-02T02:20:34.235Z,1005
2018-04-02T02:21:34.988Z,1005
2018-04-02T02:22:35.738Z,1005
2018-04-02T02:23:36.492Z,1005
2018-04-02T02:24:37.248Z,1005
2018-04-02T02:25:38.002Z,1005
2018-04-02T02:26:38.778Z,1005
2018-04-02T02:27:39.529Z,1005
2018-04-02T02:28:40.308Z,1005
2018-04-02T02:29:41.065Z,1005
2018-04-02T02:30:41.825Z,1005
2018-04-02T02:31:42.578Z,1005
2018-04-02T02:32:43.348Z,1005
2018-04-02T02:33:44.112Z,1005
2018-04-02T02:34:44.867Z,1005
2018-04-02T02:35:45.620Z,1005
2018-04-02T02:36:46.399Z,1005
2018-04-02T02:37:47.148Z,1005
2018-04-02T02:38:47.928Z,1005
2018-04-02T02:39:48.679Z,1005
2018-04-02T02:40:49.441Z,1005
2018-04-02T02:41:50.218Z,1005
2018-04-02T02:42:50.978Z,1005
2018-04-02T02:43:51.734Z,1005
2018-04-02T02:44:52.512Z,1005
2018-04-02T02:45:53.263Z,1005
2018-04-02T02:46:54.368Z,1005
2018-04-02T02:47:55.197Z,1005
2018-04-02T02:48:55.950Z,1005
2018-04-02T02:49:56.703Z,1005
2018-04-02T02:50:57.454Z,1005
2018-04-02T02:51:58.204Z,1005
2018-04-02T02:52:58.982Z,1005
2018-04-02T02:53:59.737Z,1005
2018-04-02T02:55:00.491Z,1005
2018-04-02T02:56:01.248Z,1005
2018-04-02T02:57:01.999Z,1005
2018-04-02T02:58:03.007Z,1005
2018-04-02T02:59:03.785Z,1005
2018-04-02T03:00:04.570Z,1005
2018-04-02T03:01:05.342Z,1005
2018-04-02T03:02:06.101Z,1005
2018-04-02T03:03:06.856Z,1005
2018-04-02T03:04:07.634Z,1005
2018-04-02T03:05:08.383Z,1005
2018-04-02T03:06:09.166Z,1005
2018-04-02T03:07:09.949Z,1005
2018-04-02T03:08:10.726Z,1005
2018-04-02T03:09:11.478Z,1005
2018-04-02T03:10:12.260Z,1005
2018-04-02T03:11:13.034Z,1005
2018-04-02T03:12:13.791Z,1005
2018-04-02T03:13:14.566Z,1005
2018-04-02T03:14:15.341Z,1005
2018-04-02T03:15:16.118Z,1005
2018-04-02T03:16:16.898Z,1005
2018-04-02T03:17:17.675Z,1005
2018-04-02T03:18:18.451Z,1005
2018-04-02T03:19:19.234Z,1005
2018-04-02T03:20:19.982Z,1005
2018-04-02T03:21:20.762Z,1005
2018-04-02T03:22:21.513Z,1005
2018-04-02T03:23:22.268Z,1005
2018-04-02T03:24:23.011Z,1005
2018-04-02T03:25:23.798Z,1005
2018-04-02T03:26:24.576Z,1005
2018-04-02T03:27:25.336Z,1005
2018-04-02T03:28:26.090Z,1005
2018-04-02T03:29:26.865Z,1005
2018-04-02T03:30:27.644Z,1005
2018-04-02T03:31:28.396Z,1005
2018-04-02T03:32:29.152Z,1005
2018-04-02T03:33:29.931Z,1005
2018-04-02T03:34:30.681Z,1005
2018-04-02T03:35:31.440Z,1005
2018-04-02T03:36:32.191Z,1005
2018-04-02T03:37:32.947Z,1005
2018-04-02T03:38:33.704Z,1005
2018-04-02T03:39:34.438Z,1005
2018-04-02T03:40:35.173Z,1005
2018-04-02T03:41:35.894Z,1005
2018-04-02T03:42:36.661Z,1005
2018-04-02T03:43:37.392Z,1004
2018-04-02T03:44:38.125Z,1004
2018-04-02T03:45:38.858Z,1004
2018-04-02T03:46:39.594Z,1005
2018-04-02T03:47:40.329Z,1004
2018-04-02T03:48:41.061Z,1004
2018-04-02T03:49:41.794Z,1004
2018-04-02T03:50:42.528Z,1004
2018-04-02T03:51:43.260Z,1004
2018-04-02T03:52:43.990Z,1004
2018-04-02T03:53:44.730Z,1004
2018-04-02T03:54:45.461Z,1004
2018-04-02T03:55:46.195Z,1004
2018-04-02T03:56:46.928Z,1004
2018-04-02T03:57:47.658Z,1004
2018-04-02T03:58:48.391Z,1004
2018-04-02T03:59:49.121Z,1004
2018-04-02T04:00:49.855Z,1004
2018-04-02T04:01:50.584Z,1004
2018-04-02T04:02:51.317Z,1004
2018-04-02T04:03:52.046Z,1004
2018-04-02T04:04:52.783Z,1004
2018-04-02T04:05:53.523Z,1004
2018-04-02T04:06:54.255Z,1004
2018-04-02T04:07:54.979Z,1004
2018-04-02T04:08:55.710Z,1004
2018-04-02T04:09:56.443Z,1004
2018-04-02T04:10:57.169Z,1004
2018-04-02T04:11:57.903Z,1004
2018-04-02T04:12:58.632Z,1004
2018-04-02T04:13:59.363Z,1004
2018-04-02T04:15:00.094Z,1004
2018-04-02T04:16:00.827Z,1004
2018-04-02T04:17:01.558Z,1004
2018-04-02T04:18:02.290Z,1004
2018-04-02T04:19:03.018Z,1004
2018-04-02T04:20:03.749Z,1004
2018-04-02T04:21:04.477Z,1004
2018-04-02T04:22:05.207Z,1004
2018-04-02T04:23:05.936Z,1004
2018-04-02T04:24:06.669Z,1004
2018-04-02T04:25:07.396Z,1004
2018-04-02T04:26:08.125Z,1004
2018-04-02T04:27:08.861Z,1004
2018-04-02T04:28:09.586Z,1004
2018-04-02T04:29:10.316Z,1004
2018-04-02T04:30:11.046Z,1004
2018-04-02T04:31:11.773Z,1004
2018-04-02T04:32:12.505Z,1004
2018-04-02T04:33:13.231Z,1004
2018-04-02T04:34:13.962Z,1004
2018-04-02T04:35:14.690Z,1004
2018-04-02T04:36:15.422Z,1004
2018-04-02T04:37:16.149Z,1004
2018-04-02T04:38:16.880Z,1004
2018-04-02T04:39:17.610Z,1004
2018-04-02T04:40:18.377Z,1004
2018-04-02T04:41:19.076Z,1004
2018-04-02T04:42:19.807Z,1004
2018-04-02T04:43:20.537Z,1004
2018-04-02T04:44:21.266Z,1004
2018-04-02T04:45:22.000Z,1004
2018-04-02T04:46:22.726Z,1004
2018-04-02T04:47:23.460Z,1004
2018-04-02T04:48:24.191Z,1004
2018-04-02T04:49:24.925Z,1004
2018-04-02T04:50:25.654Z,1004
2018-04-02T04:51:26.395Z,1004
2018-04-02T04:52:27.125Z,1004
2018-04-02T04:53:27.856Z,1004
2018-04-02T04:54:28.590Z,1004
2018-04-02T04:55:29.323Z,1004
2018-04-02T04:56:30.052Z,1004
2018-04-02T04:57:30.783Z,1004
2018-04-02T04:58:31.516Z,1004
2018-04-02T04:59:32.245Z,1004
2018-04-02T05:00:32.985Z,1004
2018-04-02T05:01:33.717Z,1004
2018-04-02T05:02:34.447Z,1004
2018-04-02T05:03:35.180Z,1004
2018-04-02T05:04:35.912Z,1004
2018-04-02T05:05:36.643Z,1004
2018-04-02T05:06:37.374Z,1004
2018-04-02T05:07:38.105Z,1004
2018-04-02T05:08:38.853Z,1004
2018-04-02T05:09:39.583Z,1004
2018-04-02T05:10:40.321Z,1004
2018-04-02T05:11:41.050Z,1004
2018-04-02T05:12:41.781Z,1004
2018-04-02T05:13:42.516Z,1004
2018-04-02T05:14:43.248Z,1004
2018-04-02T05:15:43.985Z,1004
2018-04-02T05:16:44.716Z,1004
2018-04-02T05:17:45.460Z,1004
2018-04-02T05:18:46.184Z,1004
2018-04-02T05:19:46.918Z,1004
2018-04-02T05:20:47.650Z,1004
2018-04-02T05:21:48.378Z,1004
2018-04-02T05:22:49.178Z,1004
2018-04-02T05:23:49.856Z,1004
2018-04-02T05:24:50.590Z,1004
2018-04-02T05:25:51.324Z,1004
2018-04-02T05:26:52.068Z,1004
2018-04-02T05:27:52.800Z,1004
2018-04-02T05:28:53.542Z,1004
2018-04-02T05:29:54.276Z,1004
2018-04-02T05:30:55.053Z,1004
2018-04-02T05:31:55.743Z,1004
2018-04-02T05:32:56.484Z,1004
2018-04-02T05:33:57.211Z,1004
2018-04-02T05:34:57.952Z,1004
2018-04-02T05:35:58.678Z,1004
2018-04-02T05:36:59.419Z,1004
2018-04-02T05:38:00.155Z,1004
2018-04-02T05:39:00.888Z,1004
2018-04-02T05:40:01.617Z,1004
2018-04-02T05:41:02.376Z,1004
2018-04-02T05:42:03.097Z,1004
2018-04-02T05:43:03.833Z,1004
2018-04-02T05:44:04.566Z,1004
2018-04-02T05:45:05.326Z,1004
2018-04-02T05:46:06.077Z,1004
2018-04-02T05:47:06.809Z,1004
2018-04-02T05:48:07.545Z,1004
2018-04-02T05:49:08.277Z,1004
2018-04-02T05:50:09.015Z,1004
2018-04-02T05:51:09.748Z,1004
2018-04-02T05:52:10.484Z,1004
2018-04-02T05:53:11.221Z,1004
2018-04-02T05:54:11.959Z,1004
2018-04-02T05:55:12.693Z,1004
2018-04-02T05:56:13.428Z,1004
2018-04-02T05:57:14.167Z,1004
2018-04-02T05:58:14.900Z,1004
2018-04-02T05:59:15.635Z,1004
2018-04-02T06:00:16.372Z,1004
2018-04-02T06:01:17.112Z,1004
2018-04-02T06:02:17.847Z,1004
2018-04-02T06:03:18.581Z,1004
2018-04-02T06:04:19.357Z,1004
2018-04-02T06:05:20.143Z,1004
2018-04-02T06:06:20.877Z,1004
2018-04-02T06:07:21.613Z,1004
2018-04-02T06:08:22.352Z,1004
2018-04-02T06:09:23.087Z,1004
2018-04-02T06:10:23.823Z,1004
2018-04-02T06:11:24.559Z,1004
2018-04-02T06:12:25.295Z,1004
2018-04-02T06:13:26.039Z,1004
2018-04-02T06:14:26.782Z,1004
2018-04-02T06:15:27.508Z,1004
2018-04-02T06:16:28.246Z,1004
2018-04-02T06:17:28.983Z,1004
2018-04-02T06:18:29.719Z,1004
2018-04-02T06:19:30.456Z,1004
2018-04-02T06:20:31.212Z,1004
2018-04-02T06:21:31.931Z,1004
2018-04-02T06:22:32.667Z,1004
2018-04-02T06:23:33.403Z,1004
2018-04-02T06:24:34.142Z,1004
2018-04-02T06:25:34.879Z,1004
2018-04-02T06:26:35.622Z,1004
2018-04-02T06:27:36.357Z,1004
2018-04-02T06:28:37.102Z,1004
2018-04-02T06:29:37.830Z,1004
2018-04-02T06:30:38.564Z,1004
2018-04-02T06:31:39.336Z,1004
2018-04-02T06:32:40.039Z,1004
2018-04-02T06:33:40.777Z,1004
2018-04-02T06:34:41.519Z,1004
2018-04-02T06:35:42.259Z,1004
2018-04-02T06:36:42.993Z,1004
2018-04-02T06:37:43.732Z,1004
2018-04-02T06:38:44.468Z,1004
2018-04-02T06:39:45.207Z,1004
2018-04-02T06:40:45.983Z,1004
2018-04-02T06:41:46.721Z,1004
2018-04-02T06:42:47.457Z,1004
2018-04-02T06:43:48.199Z,1004
2018-04-02T06:44:48.935Z,1004
2018-04-02T06:45:49.673Z,1004
2018-04-02T06:46:50.410Z,1004
2018-04-02T06:47:51.157Z,1004
2018-04-02T06:48:51.896Z,1004
2018-04-02T06:49:52.635Z,1004
2018-04-02T06:50:53.376Z,1004
2018-04-02T06:51:54.120Z,1004
2018-04-02T06:52:54.902Z,1004
2018-04-02T06:53:55.593Z,1004
2018-04-02T06:54:56.333Z,1004
2018-04-02T06:55:57.070Z,1004
2018-04-02T06:56:57.810Z,1004
2018-04-02T06:57:58.548Z,1004
2018-04-02T06:58:59.286Z,1004
2018-04-02T07:00:00.029Z,1004
2018-04-02T07:01:00.763Z,1004
2018-04-02T07:02:01.507Z,1004
2018-04-02T07:03:02.238Z,1004
2018-04-02T07:04:02.978Z,1004
2018-04-02T07:05:03.716Z,1004
2018-04-02T07:06:04.455Z,1004
2018-04-02T07:07:05.196Z,1004
2018-04-02T07:08:05.931Z,1004
2018-04-02T07:09:06.667Z,1004
2018-04-02T07:10:07.413Z,1004
2018-04-02T07:11:08.152Z,1004
2018-04-02T07:12:08.892Z,1004
2018-04-02T07:13:09.631Z,1004
2018-04-02T07:14:10.369Z,1004
2018-04-02T07:15:11.106Z,1004
2018-04-02T07:16:11.846Z,1004
2018-04-02T07:17:12.587Z,1004
2018-04-02T07:18:13.325Z,1004
2018-04-02T07:19:14.066Z,1004
2018-04-02T07:20:14.803Z,1004
2018-04-02T07:21:15.541Z,1004
2018-04-02T07:22:16.275Z,1004
2018-04-02T07:23:17.019Z,1004
2018-04-02T07:24:17.753Z,1004
2018-04-02T07:25:18.494Z,1004
2018-04-02T07:26:19.231Z,1004
2018-04-02T07:27:19.967Z,1004
2018-04-02T07:28:20.704Z,1004
2018-04-02T07:29:21.443Z,1004
2018-04-02T07:30:22.218Z,1004
2018-04-02T07:31:22.957Z,1004
2018-04-02T07:32:23.694Z,1004
2018-04-02T07:33:24.441Z,1004
2018-04-02T07:34:25.176Z,1004
2018-04-02T07:35:25.929Z,1004
2018-04-02T07:36:26.664Z,1004
2018-04-02T07:37:27.400Z,1004
2018-04-02T07:38:28.184Z,1004
2018-04-02T07:39:29.007Z,1004
2018-04-02T07:40:29.843Z,1003
2018-04-02T07:41:30.655Z,1003
2018-04-02T07:42:31.474Z,1003
2018-04-02T07:43:32.288Z,1003
2018-04-02T07:44:33.101Z,1003
2018-04-02T07:45:33.888Z,1003
2018-04-02T07:46:34.660Z,1003
2018-04-02T07:47:35.412Z,1003
2018-04-02T07:48:36.150Z,1003
2018-04-02T07:49:36.893Z,1003
2018-04-02T07:50:37.673Z,1003
2018-04-02T07:51:38.416Z,1003
2018-04-02T07:52:39.218Z,1003
2018-04-02T07:53:39.976Z,1003
2018-04-02T07:54:40.739Z,1003
2018-04-02T07:55:41.481Z,1003
2018-04-02T07:56:42.239Z,1003
2018-04-02T07:57:43.059Z,1003
2018-04-02T07:58:43.810Z,1003
2018-04-02T07:59:44.550Z,1003
2018-04-02T08:00:45.337Z,1003
2018-04-02T08:01:46.195Z,1003
2018-04-02T08:02:47.015Z,1003
2018-04-02T08:03:47.753Z,1003
2018-04-02T08:04:48.548Z,1003
2018-04-02T08:05:49.307Z,1003
2018-04-02T08:06:50.091Z,1003
2018-04-02T08:07:50.844Z,1003
2018-04-02T08:08:51.614Z,1003
2018-04-02T08:09:52.402Z,1003
2018-04-02T08:10:53.189Z,1003
2018-04-02T08:11:54.000Z,1003
2018-04-02T08:12:54.815Z,1003
2018-04-02T08:13:55.593Z,1003
2018-04-02T08:14:56.459Z,1003
2018-04-02T08:15:57.613Z,1003
2018-04-02T08:16:58.631Z,1003
2018-04-02T08:17:59.474Z,1003
2018-04-02T08:19:00.208Z,1003
2018-04-02T08:20:00.969Z,1003
2018-04-02T08:21:01.710Z,1003
2018-04-02T08:22:02.464Z,1003
2018-04-02T08:23:03.216Z,1003
2018-04-02T08:24:03.962Z,1003
2018-04-02T08:25:04.700Z,1003
2018-04-02T08:26:05.464Z,1003
2018-04-02T08:27:06.230Z,1003
2018-04-02T08:28:06.968Z,1003
2018-04-02T08:29:07.712Z,1003
2018-04-02T08:30:08.501Z,1003
2018-04-02T08:31:09.269Z,1003
2018-04-02T08:32:10.039Z,1003
2018-04-02T08:33:10.773Z,1003
2018-04-02T08:34:11.524Z,1003
2018-04-02T08:35:12.271Z,1003
2018-04-02T08:36:13.017Z,1003
2018-04-02T08:37:13.762Z,1003
2018-04-02T08:38:14.507Z,1003
2018-04-02T08:39:15.250Z,1003
2018-04-02T08:40:15.993Z,1003
2018-04-02T08:41:16.739Z,1003
2018-04-02T08:42:17.765Z,1003
2018-04-02T08:43:18.480Z,1003
2018-04-02T08:44:19.264Z,1003
2018-04-02T08:45:19.974Z,1003
2018-04-02T08:46:20.714Z,1003
2018-04-02T08:47:21.458Z,1003
2018-04-02T08:48:22.203Z,1003
2018-04-02T08:49:22.945Z,1003
2018-04-02T08:50:23.693Z,1003
2018-04-02T08:51:24.433Z,1003
2018-04-02T08:52:25.178Z,1003
2018-04-02T08:53:25.922Z,1003
2018-04-02T08:54:26.668Z,1003
2018-04-02T08:55:27.409Z,1003
2018-04-02T08:56:28.151Z,1003
2018-04-02T08:57:28.907Z,1003
2018-04-02T08:58:29.648Z,1003
2018-04-02T08:59:30.389Z,1003
2018-04-02T09:00:31.137Z,1003
2018-04-02T09:01:31.878Z,1003
2018-04-02T09:02:32.630Z,1003
2018-04-02T09:03:33.371Z,1003
2018-04-02T09:04:34.141Z,1003
2018-04-02T09:05:34.866Z,1003
2018-04-02T09:06:35.616Z,1003
2018-04-02T09:07:36.355Z,1003
2018-04-02T09:08:37.100Z,1003
2018-04-02T09:09:37.842Z,1003
2018-04-02T09:10:38.597Z,1003
2018-04-02T09:11:39.343Z,1003
2018-04-02T09:12:40.090Z,1003
2018-04-02T09:13:40.834Z,1003
2018-04-02T09:14:41.580Z,1003
2018-04-02T09:15:42.320Z,1003
2018-04-02T09:16:43.066Z,1003
2018-04-02T09:17:43.809Z,1003
2018-04-02T09:18:44.552Z,1003
2018-04-02T09:19:45.297Z,1003
2018-04-02T09:20:46.044Z,1003
2018-04-02T09:21:46.788Z,1003
2018-04-02T09:22:47.533Z,1003
2018-04-02T09:23:48.276Z,1003
2018-04-02T09:24:49.057Z,1003
2018-04-02T09:25:49.776Z,1003
2018-04-02T09:26:50.521Z,1003
2018-04-02T09:27:51.268Z,1002
2018-04-02T09:28:52.010Z,1003
2018-04-02T09:29:52.759Z,1003
2018-04-02T09:30:53.506Z,1002
2018-04-02T09:31:54.248Z,1002
2018-04-02T09:32:55.008Z,1002
2018-04-02T09:33:55.751Z,1002
2018-04-02T09:34:56.499Z,1002
2018-04-02T09:35:57.243Z,1002
2018-04-02T09:36:57.993Z,1002
2018-04-02T09:37:58.794Z,1002
2018-04-02T09:38:59.663Z,1002
2018-04-02T09:40:00.448Z,1002
2018-04-02T09:41:01.243Z,1002
2018-04-02T09:42:01.986Z,1002
2018-04-02T09:43:02.787Z,1002
2018-04-02T09:44:03.625Z,1002
2018-04-02T09:45:04.486Z,1002
2018-04-02T09:46:05.333Z,1002
2018-04-02T09:47:06.224Z,1002
2018-04-02T09:48:07.322Z,1002
2018-04-02T09:49:08.171Z,1002
2018-04-02T09:50:08.975Z,1002
2018-04-02T09:51:09.831Z,1002
2018-04-02T09:52:10.641Z,1002
2018-04-02T09:53:11.457Z,1002
2018-04-02T09:54:12.599Z,1002
2018-04-02T09:55:13.421Z,1002
2018-04-02T09:56:14.256Z,1002
2018-04-02T09:57:15.157Z,1002
2018-04-02T09:58:15.976Z,1002
2018-04-02T09:59:16.901Z,1002
2018-04-02T10:00:17.684Z,1002
2018-04-02T10:01:18.498Z,1002
2018-04-02T10:02:19.384Z,1002
2018-04-02T10:03:20.204Z,1002
2018-04-02T10:04:21.041Z,1002
2018-04-02T10:05:21.856Z,1002
2018-04-02T10:06:22.727Z,1002
2018-04-02T10:07:23.604Z,1002
2018-04-02T10:08:24.436Z,1002
2018-04-02T10:09:25.296Z,1002
2018-04-02T10:10:26.156Z,1002
2018-04-02T10:11:27.018Z,1002
2018-04-02T10:12:27.829Z,1002
2018-04-02T10:13:28.632Z,1002
2018-04-02T10:14:29.486Z,1002
2018-04-02T10:15:30.382Z,1002
2018-04-02T10:16:31.222Z,1002
2018-04-02T10:17:32.036Z,1002
2018-04-02T10:18:32.872Z,1002
2018-04-02T10:19:33.726Z,1002
2018-04-02T10:20:34.532Z,1002
2018-04-02T10:21:35.435Z,1002
2018-04-02T10:22:36.267Z,1002
2018-04-02T10:23:37.094Z,1002
2018-04-02T10:24:37.912Z,1002
2018-04-02T10:25:38.715Z,1002
2018-04-02T10:26:39.636Z,1002
2018-04-02T10:27:40.428Z,1002
2018-04-02T10:28:41.249Z,1002
2018-04-02T10:29:42.048Z,1002
2018-04-02T10:30:42.904Z,1002
2018-04-02T10:31:43.705Z,1002
2018-04-02T10:32:44.500Z,1002
2018-04-02T10:33:45.556Z,1002
2018-04-02T10:34:46.310Z,1002
2018-04-02T10:35:47.062Z,1002
2018-04-02T10:36:47.946Z,1002
2018-04-02T10:37:48.775Z,1001
2018-04-02T10:38:49.590Z,1001
2018-04-02T10:39:50.332Z,1002
2018-04-02T10:40:51.084Z,1001
2018-04-02T10:41:51.829Z,1001
2018-04-02T10:42:52.578Z,1001
2018-04-02T10:43:53.330Z,1001
2018-04-02T10:44:54.087Z,1001
2018-04-02T10:45:54.829Z,1001
2018-04-02T10:46:55.580Z,1001
2018-04-02T10:47:56.337Z,1002
2018-04-02T10:48:57.083Z,1001
2018-04-02T10:49:57.831Z,1001
2018-04-02T10:50:58.576Z,1001
2018-04-02T10:51:59.334Z,1001
2018-04-02T10:53:00.080Z,1001
2018-04-02T10:54:00.829Z,1001
2018-04-02T10:55:01.583Z,1001
2018-04-02T10:56:02.326Z,1001
2018-04-02T10:57:03.076Z,1001
2018-04-02T10:58:03.828Z,1001
2018-04-02T10:59:04.567Z,1001
2018-04-02T11:00:05.314Z,1001
2018-04-02T11:01:06.063Z,1001
2018-04-02T11:02:06.812Z,1001
2018-04-02T11:03:07.557Z,1001
2018-04-02T11:04:08.314Z,1001
2018-04-02T11:05:09.063Z,1001
2018-04-02T11:06:09.828Z,1001
2018-04-02T11:07:10.573Z,1001
2018-04-02T11:08:11.327Z,1001
2018-04-02T11:09:12.073Z,1001
2018-04-02T11:10:12.856Z,1001
2018-04-02T11:11:13.591Z,1001
2018-04-02T11:12:14.342Z,1001
2018-04-02T11:13:15.089Z,1001
2018-04-02T11:14:15.833Z,1001
2018-04-02T11:15:16.589Z,1001
2018-04-02T11:16:17.339Z,1001
2018-04-02T11:17:18.087Z,1001
2018-04-02T11:18:18.836Z,1001
2018-04-02T11:19:19.583Z,1001
2018-04-02T11:20:20.335Z,1001
2018-04-02T11:21:21.074Z,1001
2018-04-02T11:22:21.822Z,1001
2018-04-02T11:23:22.567Z,1001
2018-04-02T11:24:23.308Z,1001
2018-04-02T11:25:24.064Z,1001
2018-04-02T11:26:24.806Z,1001
2018-04-02T11:27:25.547Z,1001
2018-04-02T11:28:26.294Z,1001
2018-04-02T11:29:27.035Z,1001
2018-04-02T11:30:27.782Z,1001
2018-04-02T11:31:28.527Z,1001
2018-04-02T11:32:29.270Z,1001
2018-04-02T11:33:30.014Z,1000
2018-04-02T11:34:30.756Z,1000
2018-04-02T11:35:31.500Z,1000
2018-04-02T11:36:32.246Z,1000
2018-04-02T11:37:33.022Z,1001
2018-04-02T11:38:33.734Z,1000
2018-04-02T11:39:34.475Z,1000
2018-04-02T11:40:35.219Z,1000
2018-04-02T11:41:35.959Z,1000
2018-04-02T11:42:36.700Z,1001
2018-04-02T11:43:37.452Z,1000
2018-04-02T11:44:38.196Z,1001
2018-04-02T11:45:38.936Z,1000
2018-04-02T11:46:39.678Z,1000
2018-04-02T11:47:40.417Z,1000
2018-04-02T11:48:41.171Z,1000
2018-04-02T11:49:41.900Z,1000
2018-04-02T11:50:42.641Z,1000
2018-04-02T11:51:43.380Z,1000
2018-04-02T11:52:44.131Z,1000
2018-04-02T11:53:44.873Z,1000
2018-04-02T11:54:45.614Z,1000
2018-04-02T11:55:46.355Z,1000
2018-04-02T11:56:47.108Z,1000
2018-04-02T11:57:47.850Z,1000
2018-04-02T11:58:48.589Z,1000
2018-04-02T11:59:49.331Z,1000
2018-04-02T12:00:50.070Z,1000
2018-04-02T12:01:50.812Z,1000
2018-04-02T12:02:51.558Z,1000
2018-04-02T12:03:52.297Z,1000
2018-04-02T12:04:53.043Z,1000
2018-04-02T12:05:53.783Z,1000
2018-04-02T12:06:54.526Z,1000
2018-04-02T12:07:55.265Z,1000
2018-04-02T12:08:56.019Z,1000
2018-04-02T12:09:56.763Z,1000
2018-04-02T12:10:57.500Z,1000
2018-04-02T12:11:58.241Z,1000
2018-04-02T12:12:58.981Z,1000
2018-04-02T12:13:59.720Z,1000
2018-04-02T12:15:00.462Z,1000
2018-04-02T12:16:01.207Z,1000
2018-04-02T12:17:01.959Z,1000
2018-04-02T12:18:02.689Z,1000
2018-04-02T12:19:03.432Z,1000
2018-04-02T12:20:04.175Z,1000
2018-04-02T12:21:04.970Z,1000
2018-04-02T12:22:05.660Z,1000
2018-04-02T12:23:06.404Z,1000
2018-04-02T12:24:07.151Z,1000
2018-04-02T12:25:07.886Z,1000
2018-04-02T12:26:08.636Z,1000
2018-04-02T12:27:09.373Z,1000
2018-04-02T12:28:10.116Z,1000
2018-04-02T12:29:10.857Z,1000
2018-04-02T12:30:11.601Z,1000
2018-04-02T12:31:12.345Z,1000
2018-04-02T12:32:13.085Z,1000
2018-04-02T12:33:13.830Z,1000
2018-04-02T12:34:14.573Z,1000
2018-04-02T12:35:15.311Z,1000
2018-04-02T12:36:16.050Z,1000
2018-04-02T12:37:16.793Z,1000
2018-04-02T12:38:17.534Z,1000
2018-04-02T12:39:18.276Z,1000
2018-04-02T12:40:19.018Z,1000
2018-04-02T12:41:19.771Z,1000
2018-04-02T12:42:20.513Z,1000
2018-04-02T12:43:21.278Z,1000
2018-04-02T12:44:22.052Z,1000
2018-04-02T12:45:22.742Z,1000
2018-04-02T12:46:23.487Z,999
2018-04-02T12:47:24.226Z,999
2018-04-02T12:48:25.008Z,999
2018-04-02T12:49:25.717Z,999
2018-04-02T12:50:26.458Z,999
2018-04-02T12:51:27.194Z,999
2018-04-02T12:52:27.949Z,999
2018-04-02T12:53:28.688Z,999
2018-04-02T12:54:29.434Z,999
2018-04-02T12:55:30.172Z,999
2018-04-02T12:56:30.912Z,999
2018-04-02T12:57:31.655Z,999
2018-04-02T12:58:32.394Z,999
2018-04-02T12:59:33.136Z,999
2018-04-02T13:00:33.879Z,999
2018-04-02T13:01:34.621Z,999
2018-04-02T13:02:35.364Z,999
2018-04-02T13:03:36.104Z,999
2018-04-02T13:04:36.868Z,999
2018-04-02T13:05:37.585Z,999
2018-04-02T13:06:38.336Z,999
2018-04-02T13:07:39.069Z,999
2018-04-02T13:08:39.815Z,999
2018-04-02T13:09:40.552Z,999
2018-04-02T13:10:41.386Z,999
2018-04-02T13:11:42.032Z,999
2018-04-02T13:12:42.773Z,999
2018-04-02T13:13:43.508Z,999
2018-04-02T13:14:44.261Z,999
2018-04-02T13:15:45.004Z,999
2018-04-02T13:16:45.773Z,999
2018-04-02T13:17:46.514Z,999
2018-04-02T13:18:47.251Z,999
2018-04-02T13:19:47.990Z,999
2018-04-02T13:20:48.730Z,999
2018-04-02T13:21:49.465Z,999
2018-04-02T13:22:50.221Z,999
2018-04-02T13:23:50.954Z,999
2018-04-02T13:24:51.694Z,999
2018-04-02T13:25:52.434Z,999
2018-04-02T13:26:53.170Z,999
2018-04-02T13:27:53.922Z,999
2018-04-02T13:28:54.656Z,999
2018-04-02T13:29:55.392Z,999